sensor_id;sensor_type;location;lat;lon;timestamp;pressure;altitude;pressure_sealevel;temperature;humidity
57094;BME280;42970;50.996;3.706;2023-05-20T00:00:32;47177.91;;;-146.65;67.31
57094;BME280;42970;50.996;3.706;2023-05-20T00:02:58;47175.91;;;-146.65;67.63
57094;BME280;42970;50.996;3.706;2023-05-20T00:05:25;47175.91;;;-146.65;67.30
57094;BME280;42970;50.996;3.706;2023-05-20T00:07:50;47181.91;;;-146.65;67.07
57094;BME280;42970;50.996;3.706;2023-05-20T00:10:15;47181.91;;;-146.65;66.56
57094;BME280;42970;50.996;3.706;2023-05-20T00:12:41;47179.91;;;-146.65;67.18
57094;BME280;42970;50.996;3.706;2023-05-20T00:15:07;47175.91;;;-146.65;68.11
57094;BME280;42970;50.996;3.706;2023-05-20T00:17:32;47181.91;;;-146.65;67.20
57094;BME280;42970;50.996;3.706;2023-05-20T00:19:58;47175.91;;;-146.65;68.07
57094;BME280;42970;50.996;3.706;2023-05-20T00:22:25;47173.91;;;-146.65;67.38
57094;BME280;42970;50.996;3.706;2023-05-20T00:24:50;47177.91;;;-146.65;67.30
57094;BME280;42970;50.996;3.706;2023-05-20T00:27:16;47179.91;;;-146.65;68.38
57094;BME280;42970;50.996;3.706;2023-05-20T00:29:41;47175.91;;;-146.65;68.31
57094;BME280;42970;50.996;3.706;2023-05-20T00:32:07;47175.91;;;-146.65;67.59
57094;BME280;42970;50.996;3.706;2023-05-20T00:34:32;47175.91;;;-146.65;67.46
57094;BME280;42970;50.996;3.706;2023-05-20T00:36:58;47177.91;;;-146.65;67.41
57094;BME280;42970;50.996;3.706;2023-05-20T00:39:24;47175.91;;;-146.65;67.69
57094;BME280;42970;50.996;3.706;2023-05-20T00:41:49;47177.91;;;-146.65;67.17
57094;BME280;42970;50.996;3.706;2023-05-20T00:44:15;47177.91;;;-146.65;67.49
57094;BME280;42970;50.996;3.706;2023-05-20T00:46:43;47177.91;;;-146.65;67.48
57094;BME280;42970;50.996;3.706;2023-05-20T00:49:09;47175.91;;;-146.65;66.92
57094;BME280;42970;50.996;3.706;2023-05-20T00:51:34;47175.91;;;-146.65;67.52
57094;BME280;42970;50.996;3.706;2023-05-20T00:54:00;47175.91;;;-146.65;67.23
57094;BME280;42970;50.996;3.706;2023-05-20T00:56:25;47179.91;;;-146.65;67.33
57094;BME280;42970;50.996;3.706;2023-05-20T00:58:51;47173.91;;;-146.65;67.07
57094;BME280;42970;50.996;3.706;2023-05-20T01:01:16;47175.91;;;-146.65;67.45
57094;BME280;42970;50.996;3.706;2023-05-20T01:03:42;47177.91;;;-146.65;66.67
57094;BME280;42970;50.996;3.706;2023-05-20T01:06:07;47177.91;;;-146.65;66.63
57094;BME280;42970;50.996;3.706;2023-05-20T01:08:33;47177.91;;;-146.65;66.87
57094;BME280;42970;50.996;3.706;2023-05-20T01:11:30;47177.91;;;-146.65;66.94
57094;BME280;42970;50.996;3.706;2023-05-20T01:14:05;47177.91;;;-146.65;66.20
57094;BME280;42970;50.996;3.706;2023-05-20T01:16:34;47175.91;;;-146.65;66.18
57094;BME280;42970;50.996;3.706;2023-05-20T01:19:01;47175.91;;;-146.65;66.48
57094;BME280;42970;50.996;3.706;2023-05-20T01:21:29;47175.91;;;-146.65;66.14
57094;BME280;42970;50.996;3.706;2023-05-20T01:23:55;47177.91;;;-146.65;65.60
57094;BME280;42970;50.996;3.706;2023-05-20T01:26:20;47179.91;;;-146.65;65.78
57094;BME280;42970;50.996;3.706;2023-05-20T01:28:46;47173.91;;;-146.65;65.11
57094;BME280;42970;50.996;3.706;2023-05-20T01:31:33;47177.91;;;-146.65;65.47
57094;BME280;42970;50.996;3.706;2023-05-20T01:34:02;47181.91;;;-146.65;64.91
57094;BME280;42970;50.996;3.706;2023-05-20T01:36:29;47175.91;;;-146.65;64.71
57094;BME280;42970;50.996;3.706;2023-05-20T01:38:56;47181.91;;;-146.65;64.84
57094;BME280;42970;50.996;3.706;2023-05-20T01:41:23;47177.91;;;-146.65;65.14
57094;BME280;42970;50.996;3.706;2023-05-20T01:43:50;47177.91;;;-146.65;64.32
57094;BME280;42970;50.996;3.706;2023-05-20T01:46:16;47177.91;;;-146.65;64.46
57094;BME280;42970;50.996;3.706;2023-05-20T01:48:42;47177.91;;;-146.65;64.60
57094;BME280;42970;50.996;3.706;2023-05-20T01:51:07;47177.91;;;-146.65;65.10
57094;BME280;42970;50.996;3.706;2023-05-20T01:53:33;47177.91;;;-146.65;64.72
57094;BME280;42970;50.996;3.706;2023-05-20T01:55:58;47175.91;;;-146.65;63.93
57094;BME280;42970;50.996;3.706;2023-05-20T01:58:24;47175.91;;;-146.65;64.82
57094;BME280;42970;50.996;3.706;2023-05-20T02:00:49;47171.91;;;-146.65;64.29
57094;BME280;42970;50.996;3.706;2023-05-20T02:03:15;47177.91;;;-146.65;64.52
57094;BME280;42970;50.996;3.706;2023-05-20T02:05:40;47175.91;;;-146.65;63.89
57094;BME280;42970;50.996;3.706;2023-05-20T02:08:06;47177.91;;;-146.65;63.68
57094;BME280;42970;50.996;3.706;2023-05-20T02:10:31;47175.91;;;-146.65;63.91
57094;BME280;42970;50.996;3.706;2023-05-20T02:12:56;47177.91;;;-146.65;63.14
57094;BME280;42970;50.996;3.706;2023-05-20T02:15:22;47175.91;;;-146.65;63.50
57094;BME280;42970;50.996;3.706;2023-05-20T02:17:47;47177.91;;;-146.65;63.34
57094;BME280;42970;50.996;3.706;2023-05-20T02:20:13;47179.91;;;-146.65;63.18
57094;BME280;42970;50.996;3.706;2023-05-20T02:22:39;47173.91;;;-146.65;62.55
57094;BME280;42970;50.996;3.706;2023-05-20T02:25:05;47177.91;;;-146.65;63.25
57094;BME280;42970;50.996;3.706;2023-05-20T02:27:30;47175.91;;;-146.65;62.58
57094;BME280;42970;50.996;3.706;2023-05-20T02:29:56;47177.91;;;-146.65;63.00
57094;BME280;42970;50.996;3.706;2023-05-20T02:32:21;47175.91;;;-146.65;62.71
57094;BME280;42970;50.996;3.706;2023-05-20T02:34:52;47173.91;;;-146.65;63.06
57094;BME280;42970;50.996;3.706;2023-05-20T02:37:18;47171.91;;;-146.65;62.97
57094;BME280;42970;50.996;3.706;2023-05-20T02:39:43;47179.91;;;-146.65;63.41
57094;BME280;42970;50.996;3.706;2023-05-20T02:42:09;47181.91;;;-146.65;62.11
57094;BME280;42970;50.996;3.706;2023-05-20T02:44:34;47175.91;;;-146.65;63.49
57094;BME280;42970;50.996;3.706;2023-05-20T02:46:59;47177.91;;;-146.65;62.16
57094;BME280;42970;50.996;3.706;2023-05-20T02:49:25;47175.91;;;-146.65;61.62
57094;BME280;42970;50.996;3.706;2023-05-20T02:51:50;47175.91;;;-146.65;62.49
57094;BME280;42970;50.996;3.706;2023-05-20T02:54:16;47173.91;;;-146.65;61.96
57094;BME280;42970;50.996;3.706;2023-05-20T02:56:47;47175.91;;;-146.65;62.50
57094;BME280;42970;50.996;3.706;2023-05-20T02:59:21;47175.91;;;-146.65;63.06
57094;BME280;42970;50.996;3.706;2023-05-20T03:01:50;47173.91;;;-146.65;63.06
57094;BME280;42970;50.996;3.706;2023-05-20T03:04:17;47173.91;;;-146.65;62.19
57094;BME280;42970;50.996;3.706;2023-05-20T03:06:43;47175.91;;;-146.65;62.38
57094;BME280;42970;50.996;3.706;2023-05-20T03:09:10;47175.91;;;-146.65;63.58
57094;BME280;42970;50.996;3.706;2023-05-20T03:11:36;47177.91;;;-146.65;63.01
57094;BME280;42970;50.996;3.706;2023-05-20T03:14:01;47173.91;;;-146.65;63.04
57094;BME280;42970;50.996;3.706;2023-05-20T03:16:26;47177.91;;;-146.65;63.11
57094;BME280;42970;50.996;3.706;2023-05-20T03:18:52;47177.91;;;-146.65;63.14
57094;BME280;42970;50.996;3.706;2023-05-20T03:21:18;47175.91;;;-146.65;63.34
57094;BME280;42970;50.996;3.706;2023-05-20T03:23:44;47177.91;;;-146.65;62.40
57094;BME280;42970;50.996;3.706;2023-05-20T03:26:10;47175.91;;;-146.65;62.22
57094;BME280;42970;50.996;3.706;2023-05-20T03:28:35;47175.91;;;-146.65;62.63
57094;BME280;42970;50.996;3.706;2023-05-20T03:31:00;47177.91;;;-146.65;63.05
57094;BME280;42970;50.996;3.706;2023-05-20T03:33:26;47173.91;;;-146.65;62.81
57094;BME280;42970;50.996;3.706;2023-05-20T03:35:52;47177.91;;;-146.65;63.12
57094;BME280;42970;50.996;3.706;2023-05-20T03:38:17;47173.91;;;-146.65;62.89
57094;BME280;42970;50.996;3.706;2023-05-20T03:40:43;47179.91;;;-146.65;62.63
57094;BME280;42970;50.996;3.706;2023-05-20T03:43:08;47179.91;;;-146.65;62.50
57094;BME280;42970;50.996;3.706;2023-05-20T03:45:33;47177.91;;;-146.65;63.10
57094;BME280;42970;50.996;3.706;2023-05-20T03:47:59;47175.91;;;-146.65;62.92
57094;BME280;42970;50.996;3.706;2023-05-20T03:50:24;47173.91;;;-146.65;62.78
57094;BME280;42970;50.996;3.706;2023-05-20T03:52:50;47175.91;;;-146.65;63.01
57094;BME280;42970;50.996;3.706;2023-05-20T03:55:15;47175.91;;;-146.65;62.64
57094;BME280;42970;50.996;3.706;2023-05-20T03:57:41;47183.91;;;-146.65;63.31
57094;BME280;42970;50.996;3.706;2023-05-20T04:00:07;47177.91;;;-146.65;63.88
57094;BME280;42970;50.996;3.706;2023-05-20T04:02:38;47175.91;;;-146.65;63.25
57094;BME280;42970;50.996;3.706;2023-05-20T04:05:04;47183.91;;;-146.65;63.80
57094;BME280;42970;50.996;3.706;2023-05-20T04:07:30;47175.91;;;-146.65;63.38
57094;BME280;42970;50.996;3.706;2023-05-20T04:09:55;47177.91;;;-146.65;63.61
57094;BME280;42970;50.996;3.706;2023-05-20T04:12:20;47173.91;;;-146.65;63.25
57094;BME280;42970;50.996;3.706;2023-05-20T04:14:46;47179.91;;;-146.65;64.05
57094;BME280;42970;50.996;3.706;2023-05-20T04:17:14;47175.91;;;-146.65;63.11
57094;BME280;42970;50.996;3.706;2023-05-20T04:19:39;47175.91;;;-146.65;62.93
57094;BME280;42970;50.996;3.706;2023-05-20T04:22:05;47179.91;;;-146.65;63.20
57094;BME280;42970;50.996;3.706;2023-05-20T04:24:30;47181.91;;;-146.65;63.25
57094;BME280;42970;50.996;3.706;2023-05-20T04:26:56;47175.91;;;-146.65;63.72
57094;BME280;42970;50.996;3.706;2023-05-20T04:29:21;47177.91;;;-146.65;62.95
57094;BME280;42970;50.996;3.706;2023-05-20T04:31:47;47175.91;;;-146.65;62.61
57094;BME280;42970;50.996;3.706;2023-05-20T04:34:13;47175.91;;;-146.65;62.88
57094;BME280;42970;50.996;3.706;2023-05-20T04:36:39;47175.91;;;-146.65;63.08
57094;BME280;42970;50.996;3.706;2023-05-20T04:39:04;47177.91;;;-146.65;63.10
57094;BME280;42970;50.996;3.706;2023-05-20T04:41:32;47177.91;;;-146.65;63.50
57094;BME280;42970;50.996;3.706;2023-05-20T04:43:57;47175.91;;;-146.65;62.92
57094;BME280;42970;50.996;3.706;2023-05-20T04:46:26;47177.91;;;-146.65;62.88
57094;BME280;42970;50.996;3.706;2023-05-20T04:48:52;47177.91;;;-146.65;62.28
57094;BME280;42970;50.996;3.706;2023-05-20T04:51:18;47177.91;;;-146.65;62.67
57094;BME280;42970;50.996;3.706;2023-05-20T04:53:43;47175.91;;;-146.65;62.89
57094;BME280;42970;50.996;3.706;2023-05-20T04:56:09;47175.91;;;-146.65;62.58
57094;BME280;42970;50.996;3.706;2023-05-20T04:58:35;47177.91;;;-146.65;62.58
57094;BME280;42970;50.996;3.706;2023-05-20T05:01:00;47175.91;;;-146.65;62.14
57094;BME280;42970;50.996;3.706;2023-05-20T05:03:26;47175.91;;;-146.65;62.58
57094;BME280;42970;50.996;3.706;2023-05-20T05:06:01;47177.91;;;-146.65;61.82
57094;BME280;42970;50.996;3.706;2023-05-20T05:08:26;47175.91;;;-146.65;62.10
57094;BME280;42970;50.996;3.706;2023-05-20T05:10:52;47177.91;;;-146.65;61.12
57094;BME280;42970;50.996;3.706;2023-05-20T05:13:18;47175.91;;;-146.65;61.30
57094;BME280;42970;50.996;3.706;2023-05-20T05:15:43;47183.91;;;-146.65;61.43
57094;BME280;42970;50.996;3.706;2023-05-20T05:18:09;47175.91;;;-146.65;61.77
57094;BME280;42970;50.996;3.706;2023-05-20T05:20:35;47177.91;;;-146.65;60.92
57094;BME280;42970;50.996;3.706;2023-05-20T05:23:01;47179.91;;;-146.65;60.46
57094;BME280;42970;50.996;3.706;2023-05-20T05:25:26;47173.91;;;-146.65;60.47
57094;BME280;42970;50.996;3.706;2023-05-20T05:27:51;47173.91;;;-146.65;60.64
57094;BME280;42970;50.996;3.706;2023-05-20T05:30:19;47179.91;;;-146.65;60.53
57094;BME280;42970;50.996;3.706;2023-05-20T05:32:46;47177.91;;;-146.65;60.61
57094;BME280;42970;50.996;3.706;2023-05-20T05:35:11;47173.91;;;-146.65;59.34
57094;BME280;42970;50.996;3.706;2023-05-20T05:37:37;47175.91;;;-146.65;59.08
57094;BME280;42970;50.996;3.706;2023-05-20T05:40:02;47175.91;;;-146.65;59.83
57094;BME280;42970;50.996;3.706;2023-05-20T05:42:28;47177.91;;;-146.65;59.91
57094;BME280;42970;50.996;3.706;2023-05-20T05:44:53;47173.91;;;-146.65;58.59
57094;BME280;42970;50.996;3.706;2023-05-20T05:47:19;47181.91;;;-146.65;58.46
57094;BME280;42970;50.996;3.706;2023-05-20T05:49:44;47179.91;;;-146.65;59.37
57094;BME280;42970;50.996;3.706;2023-05-20T05:52:10;47175.91;;;-146.65;57.66
57094;BME280;42970;50.996;3.706;2023-05-20T05:54:35;47173.91;;;-146.65;57.07
57094;BME280;42970;50.996;3.706;2023-05-20T05:57:00;47175.91;;;-146.65;59.25
57094;BME280;42970;50.996;3.706;2023-05-20T05:59:26;47175.91;;;-146.65;59.12
57094;BME280;42970;50.996;3.706;2023-05-20T06:01:52;47177.91;;;-146.65;58.47
57094;BME280;42970;50.996;3.706;2023-05-20T06:04:17;47177.91;;;-146.65;57.24
57094;BME280;42970;50.996;3.706;2023-05-20T06:06:43;47175.91;;;-146.65;56.30
57094;BME280;42970;50.996;3.706;2023-05-20T06:09:08;47181.91;;;-146.65;57.16
57094;BME280;42970;50.996;3.706;2023-05-20T06:11:34;47177.91;;;-146.65;56.39
57094;BME280;42970;50.996;3.706;2023-05-20T06:14:00;47177.91;;;-146.65;54.82
57094;BME280;42970;50.996;3.706;2023-05-20T06:16:26;47181.91;;;-146.65;55.65
57094;BME280;42970;50.996;3.706;2023-05-20T06:18:51;47181.91;;;-146.65;54.46
57094;BME280;42970;50.996;3.706;2023-05-20T06:21:21;47179.91;;;-146.65;54.50
57094;BME280;42970;50.996;3.706;2023-05-20T06:23:47;47177.91;;;-146.65;55.27
57094;BME280;42970;50.996;3.706;2023-05-20T06:26:12;47175.91;;;-146.65;54.15
57094;BME280;42970;50.996;3.706;2023-05-20T06:28:38;47177.91;;;-146.65;54.06
57094;BME280;42970;50.996;3.706;2023-05-20T06:31:03;47175.91;;;-146.65;53.60
57094;BME280;42970;50.996;3.706;2023-05-20T06:33:29;47175.91;;;-146.65;53.49
57094;BME280;42970;50.996;3.706;2023-05-20T06:35:55;47177.91;;;-146.65;52.99
57094;BME280;42970;50.996;3.706;2023-05-20T06:38:21;47173.91;;;-146.65;53.11
57094;BME280;42970;50.996;3.706;2023-05-20T06:40:50;47177.91;;;-146.65;52.54
57094;BME280;42970;50.996;3.706;2023-05-20T06:43:16;47177.91;;;-146.65;52.16
57094;BME280;42970;50.996;3.706;2023-05-20T06:45:41;47177.91;;;-146.65;52.44
57094;BME280;42970;50.996;3.706;2023-05-20T06:48:07;47177.91;;;-146.65;52.36
57094;BME280;42970;50.996;3.706;2023-05-20T06:50:33;47179.91;;;-146.65;52.77
57094;BME280;42970;50.996;3.706;2023-05-20T06:52:58;47183.91;;;-146.65;52.03
57094;BME280;42970;50.996;3.706;2023-05-20T06:55:24;47179.91;;;-146.65;52.49
57094;BME280;42970;50.996;3.706;2023-05-20T06:57:50;47177.91;;;-146.65;50.72
57094;BME280;42970;50.996;3.706;2023-05-20T07:00:15;47177.91;;;-146.65;50.75
57094;BME280;42970;50.996;3.706;2023-05-20T07:02:41;47175.91;;;-146.65;50.60
57094;BME280;42970;50.996;3.706;2023-05-20T07:05:08;47179.91;;;-146.65;50.37
57094;BME280;42970;50.996;3.706;2023-05-20T07:07:33;47177.91;;;-146.65;50.16
57094;BME280;42970;50.996;3.706;2023-05-20T07:09:59;47177.91;;;-146.65;49.62
57094;BME280;42970;50.996;3.706;2023-05-20T07:12:24;47177.91;;;-146.65;49.42
57094;BME280;42970;50.996;3.706;2023-05-20T07:14:50;47175.91;;;-146.65;48.93
57094;BME280;42970;50.996;3.706;2023-05-20T07:17:15;47179.91;;;-146.65;48.68
57094;BME280;42970;50.996;3.706;2023-05-20T07:19:41;47183.91;;;-146.65;50.00
57094;BME280;42970;50.996;3.706;2023-05-20T07:22:07;47181.91;;;-146.65;49.04
57094;BME280;42970;50.996;3.706;2023-05-20T07:24:32;47181.91;;;-146.65;48.75
57094;BME280;42970;50.996;3.706;2023-05-20T07:26:58;47181.91;;;-146.65;48.35
57094;BME280;42970;50.996;3.706;2023-05-20T07:29:23;47177.91;;;-146.65;48.26
57094;BME280;42970;50.996;3.706;2023-05-20T07:31:49;47179.91;;;-146.65;47.75
57094;BME280;42970;50.996;3.706;2023-05-20T07:34:15;47179.91;;;-146.65;47.12
57094;BME280;42970;50.996;3.706;2023-05-20T07:36:40;47175.91;;;-146.65;46.69
57094;BME280;42970;50.996;3.706;2023-05-20T07:39:06;47177.91;;;-146.65;46.67
57094;BME280;42970;50.996;3.706;2023-05-20T07:41:32;47175.91;;;-146.65;46.54
57094;BME280;42970;50.996;3.706;2023-05-20T07:43:58;47171.91;;;-146.65;46.27
57094;BME280;42970;50.996;3.706;2023-05-20T07:46:23;47179.91;;;-146.65;46.57
57094;BME280;42970;50.996;3.706;2023-05-20T07:48:49;47177.91;;;-146.65;47.22
57094;BME280;42970;50.996;3.706;2023-05-20T07:51:14;47183.91;;;-146.65;46.85
57094;BME280;42970;50.996;3.706;2023-05-20T07:53:40;47177.91;;;-146.65;46.43
57094;BME280;42970;50.996;3.706;2023-05-20T07:56:06;47181.91;;;-146.65;47.37
57094;BME280;42970;50.996;3.706;2023-05-20T07:58:31;47181.91;;;-146.65;46.57
57094;BME280;42970;50.996;3.706;2023-05-20T08:00:57;47179.91;;;-146.65;45.99
57094;BME280;42970;50.996;3.706;2023-05-20T08:03:22;47181.91;;;-146.65;45.42
57094;BME280;42970;50.996;3.706;2023-05-20T08:05:47;47181.91;;;-146.65;45.41
57094;BME280;42970;50.996;3.706;2023-05-20T08:08:13;47181.91;;;-146.65;45.11
57094;BME280;42970;50.996;3.706;2023-05-20T08:10:39;47175.91;;;-146.65;45.24
57094;BME280;42970;50.996;3.706;2023-05-20T08:13:04;47177.91;;;-146.65;45.64
57094;BME280;42970;50.996;3.706;2023-05-20T08:15:30;47177.91;;;-146.65;45.67
57094;BME280;42970;50.996;3.706;2023-05-20T08:17:55;47173.91;;;-146.65;45.57
57094;BME280;42970;50.996;3.706;2023-05-20T08:20:20;47179.91;;;-146.65;44.85
57094;BME280;42970;50.996;3.706;2023-05-20T08:22:46;47181.91;;;-146.65;44.35
57094;BME280;42970;50.996;3.706;2023-05-20T08:25:12;47179.91;;;-146.65;43.84
57094;BME280;42970;50.996;3.706;2023-05-20T08:27:37;47179.91;;;-146.65;43.00
57094;BME280;42970;50.996;3.706;2023-05-20T08:30:03;47183.91;;;-146.65;42.20
57094;BME280;42970;50.996;3.706;2023-05-20T08:32:29;47177.91;;;-146.65;43.22
57094;BME280;42970;50.996;3.706;2023-05-20T08:34:55;47177.91;;;-146.65;42.00
57094;BME280;42970;50.996;3.706;2023-05-20T08:37:21;47177.91;;;-146.65;42.79
57094;BME280;42970;50.996;3.706;2023-05-20T08:39:46;47177.91;;;-146.65;42.77
57094;BME280;42970;50.996;3.706;2023-05-20T08:42:13;47183.91;;;-146.65;42.24
57094;BME280;42970;50.996;3.706;2023-05-20T08:44:40;47181.91;;;-146.65;42.48
57094;BME280;42970;50.996;3.706;2023-05-20T08:47:07;47177.91;;;-146.65;41.76
57094;BME280;42970;50.996;3.706;2023-05-20T08:49:33;47183.91;;;-146.65;41.62
57094;BME280;42970;50.996;3.706;2023-05-20T08:51:59;47181.91;;;-146.65;43.06
57094;BME280;42970;50.996;3.706;2023-05-20T08:54:29;47175.91;;;-146.65;43.35
57094;BME280;42970;50.996;3.706;2023-05-20T08:56:57;47179.91;;;-146.65;40.76
57094;BME280;42970;50.996;3.706;2023-05-20T08:59:25;47179.91;;;-146.65;41.05
57094;BME280;42970;50.996;3.706;2023-05-20T09:01:51;47177.91;;;-146.65;40.63
57094;BME280;42970;50.996;3.706;2023-05-20T09:04:16;47181.91;;;-146.65;40.39
57094;BME280;42970;50.996;3.706;2023-05-20T09:06:43;47183.91;;;-146.65;40.77
57094;BME280;42970;50.996;3.706;2023-05-20T09:09:13;47181.91;;;-146.65;41.08
57094;BME280;42970;50.996;3.706;2023-05-20T09:11:40;47173.91;;;-146.65;41.47
57094;BME280;42970;50.996;3.706;2023-05-20T09:14:06;47173.91;;;-146.65;39.94
57094;BME280;42970;50.996;3.706;2023-05-20T09:16:32;47181.91;;;-146.65;38.97
57094;BME280;42970;50.996;3.706;2023-05-20T09:18:57;47181.91;;;-146.65;38.37
57094;BME280;42970;50.996;3.706;2023-05-20T09:21:26;47179.91;;;-146.65;39.79
57094;BME280;42970;50.996;3.706;2023-05-20T09:23:52;47177.91;;;-146.65;40.28
57094;BME280;42970;50.996;3.706;2023-05-20T09:26:18;47181.91;;;-146.65;39.80
57094;BME280;42970;50.996;3.706;2023-05-20T09:28:44;47179.91;;;-146.65;38.16
57094;BME280;42970;50.996;3.706;2023-05-20T09:31:13;47177.91;;;-146.65;37.99
57094;BME280;42970;50.996;3.706;2023-05-20T09:33:39;47181.91;;;-146.65;37.92
57094;BME280;42970;50.996;3.706;2023-05-20T09:36:07;47175.91;;;-146.65;37.23
57094;BME280;42970;50.996;3.706;2023-05-20T09:38:34;47177.91;;;-146.65;38.54
57094;BME280;42970;50.996;3.706;2023-05-20T09:41:08;47179.91;;;-146.65;37.07
57094;BME280;42970;50.996;3.706;2023-05-20T09:43:35;47177.91;;;-146.65;38.07
57094;BME280;42970;50.996;3.706;2023-05-20T09:46:03;47179.91;;;-146.65;39.06
57094;BME280;42970;50.996;3.706;2023-05-20T09:48:29;47177.91;;;-146.65;37.62
57094;BME280;42970;50.996;3.706;2023-05-20T09:50:56;47181.91;;;-146.65;38.11
57094;BME280;42970;50.996;3.706;2023-05-20T09:53:24;47181.91;;;-146.65;38.15
57094;BME280;42970;50.996;3.706;2023-05-20T09:55:51;47181.91;;;-146.65;35.85
57094;BME280;42970;50.996;3.706;2023-05-20T09:58:19;47179.91;;;-146.65;36.87
57094;BME280;42970;50.996;3.706;2023-05-20T10:00:45;47183.91;;;-146.65;37.09
57094;BME280;42970;50.996;3.706;2023-05-20T10:03:11;47183.91;;;-146.65;35.71
57094;BME280;42970;50.996;3.706;2023-05-20T10:05:40;47179.91;;;-146.65;36.70
57094;BME280;42970;50.996;3.706;2023-05-20T10:11:06;47175.91;;;-146.65;35.61
57094;BME280;42970;50.996;3.706;2023-05-20T10:17:08;47181.91;;;-146.65;37.14
57094;BME280;42970;50.996;3.706;2023-05-20T10:19:04;47181.91;;;-146.65;37.95
57094;BME280;42970;50.996;3.706;2023-05-20T10:21:31;47181.91;;;-146.65;36.78
57094;BME280;42970;50.996;3.706;2023-05-20T10:24:09;47177.91;;;-146.65;36.38
57094;BME280;42970;50.996;3.706;2023-05-20T10:26:40;47181.91;;;-146.65;35.67
57094;BME280;42970;50.996;3.706;2023-05-20T10:29:18;47175.91;;;-146.65;34.98
57094;BME280;42970;50.996;3.706;2023-05-20T10:31:48;47183.91;;;-146.65;34.79
57094;BME280;42970;50.996;3.706;2023-05-20T10:34:15;47175.91;;;-146.65;35.16
57094;BME280;42970;50.996;3.706;2023-05-20T10:39:18;47181.91;;;-146.65;34.91
57094;BME280;42970;50.996;3.706;2023-05-20T10:41:43;47183.91;;;-146.65;34.78
57094;BME280;42970;50.996;3.706;2023-05-20T10:44:09;47181.91;;;-146.65;34.30
57094;BME280;42970;50.996;3.706;2023-05-20T10:46:34;47183.91;;;-146.65;33.87
57094;BME280;42970;50.996;3.706;2023-05-20T10:49:01;47181.91;;;-146.65;33.66
57094;BME280;42970;50.996;3.706;2023-05-20T10:51:28;47181.91;;;-146.65;33.34
57094;BME280;42970;50.996;3.706;2023-05-20T10:53:54;47175.91;;;-146.65;32.63
57094;BME280;42970;50.996;3.706;2023-05-20T10:56:22;47181.91;;;-146.65;32.14
57094;BME280;42970;50.996;3.706;2023-05-20T10:58:49;47185.91;;;-146.65;31.32
57094;BME280;42970;50.996;3.706;2023-05-20T11:01:16;47179.91;;;-146.65;32.06
57094;BME280;42970;50.996;3.706;2023-05-20T11:03:44;47183.91;;;-146.65;31.53
57094;BME280;42970;50.996;3.706;2023-05-20T11:08:37;47181.91;;;-146.65;32.08
57094;BME280;42970;50.996;3.706;2023-05-20T11:11:03;47181.91;;;-146.65;33.66
57094;BME280;42970;50.996;3.706;2023-05-20T11:13:29;47181.91;;;-146.65;32.74
57094;BME280;42970;50.996;3.706;2023-05-20T11:15:55;47183.91;;;-146.65;32.54
57094;BME280;42970;50.996;3.706;2023-05-20T11:18:21;47181.91;;;-146.65;31.04
57094;BME280;42970;50.996;3.706;2023-05-20T11:20:47;47181.91;;;-146.65;31.34
57094;BME280;42970;50.996;3.706;2023-05-20T11:23:13;47181.91;;;-146.65;31.61
57094;BME280;42970;50.996;3.706;2023-05-20T11:25:39;47183.91;;;-146.65;30.57
57094;BME280;42970;50.996;3.706;2023-05-20T11:28:11;47181.91;;;-146.65;31.78
57094;BME280;42970;50.996;3.706;2023-05-20T11:30:36;47181.91;;;-146.65;30.94
57094;BME280;42970;50.996;3.706;2023-05-20T11:33:02;47181.91;;;-146.65;30.74
57094;BME280;42970;50.996;3.706;2023-05-20T11:35:30;47183.91;;;-146.65;29.85
57094;BME280;42970;50.996;3.706;2023-05-20T11:37:57;47183.91;;;-146.65;30.29
57094;BME280;42970;50.996;3.706;2023-05-20T11:40:25;47177.91;;;-146.65;31.45
57094;BME280;42970;50.996;3.706;2023-05-20T11:42:58;47181.91;;;-146.65;32.06
57094;BME280;42970;50.996;3.706;2023-05-20T11:45:24;47175.91;;;-146.65;29.31
57094;BME280;42970;50.996;3.706;2023-05-20T11:48:02;47181.91;;;-146.65;32.36
57094;BME280;42970;50.996;3.706;2023-05-20T11:50:32;47179.91;;;-146.65;31.52
57094;BME280;42970;50.996;3.706;2023-05-20T11:52:59;47181.91;;;-146.65;33.04
57094;BME280;42970;50.996;3.706;2023-05-20T11:55:25;47177.91;;;-146.65;31.45
57094;BME280;42970;50.996;3.706;2023-05-20T11:57:51;47181.91;;;-146.65;30.78
57094;BME280;42970;50.996;3.706;2023-05-20T12:00:17;47181.91;;;-146.65;30.07
57094;BME280;42970;50.996;3.706;2023-05-20T12:02:43;47175.91;;;-146.65;28.77
57094;BME280;42970;50.996;3.706;2023-05-20T12:05:09;47179.91;;;-146.65;28.95
57094;BME280;42970;50.996;3.706;2023-05-20T12:07:34;47179.91;;;-146.65;28.98
57094;BME280;42970;50.996;3.706;2023-05-20T12:10:02;47181.91;;;-146.65;29.87
57094;BME280;42970;50.996;3.706;2023-05-20T12:12:27;47181.91;;;-146.65;29.66
57094;BME280;42970;50.996;3.706;2023-05-20T12:14:53;47181.91;;;-146.65;30.48
57094;BME280;42970;50.996;3.706;2023-05-20T12:17:18;47179.91;;;-146.65;29.72
57094;BME280;42970;50.996;3.706;2023-05-20T12:19:44;47179.91;;;-146.65;29.66
57094;BME280;42970;50.996;3.706;2023-05-20T12:22:09;47177.91;;;-146.65;30.90
57094;BME280;42970;50.996;3.706;2023-05-20T12:24:35;47177.91;;;-146.65;31.07
57094;BME280;42970;50.996;3.706;2023-05-20T12:27:00;47179.91;;;-146.65;30.82
57094;BME280;42970;50.996;3.706;2023-05-20T12:29:28;47179.91;;;-146.65;31.92
57094;BME280;42970;50.996;3.706;2023-05-20T12:31:54;47179.91;;;-146.65;32.16
57094;BME280;42970;50.996;3.706;2023-05-20T12:34:19;47181.91;;;-146.65;33.02
57094;BME280;42970;50.996;3.706;2023-05-20T12:36:45;47181.91;;;-146.65;32.75
57094;BME280;42970;50.996;3.706;2023-05-20T12:39:12;47181.91;;;-146.65;31.50
57094;BME280;42970;50.996;3.706;2023-05-20T12:41:42;47175.91;;;-146.65;30.77
57094;BME280;42970;50.996;3.706;2023-05-20T12:44:07;47181.91;;;-146.65;30.22
57094;BME280;42970;50.996;3.706;2023-05-20T12:46:34;47181.91;;;-146.65;29.35